createdAt,value
2018-08-27T00:00:51.136Z,3.47
2018-08-27T00:03:18.163Z,1.47
2018-08-27T00:08:23.664Z,2.12
2018-08-27T00:10:50.668Z,1.47
2018-08-27T00:13:17.657Z,1.60
2018-08-27T00:15:44.699Z,1.40
2018-08-27T00:18:11.766Z,1.83
2018-08-27T00:20:39.077Z,2.03
2018-08-27T00:23:06.970Z,1.40
2018-08-27T00:25:34.789Z,1.33
2018-08-27T00:28:01.793Z,1.77
2018-08-27T00:30:28.848Z,1.60
2018-08-27T00:32:55.881Z,1.53
2018-08-27T00:35:22.909Z,1.67
2018-08-27T00:37:49.991Z,2.57
2018-08-27T00:40:17.006Z,2.77
2018-08-27T00:42:45.025Z,1.80
2018-08-27T00:45:12.083Z,2.87
2018-08-27T00:47:39.104Z,2.20
2018-08-27T00:50:07.071Z,2.77
2018-08-27T00:52:34.172Z,2.20
2018-08-27T00:55:01.192Z,1.87
2018-08-27T00:57:28.219Z,2.20
2018-08-27T00:59:55.295Z,3.37
2018-08-27T01:02:22.328Z,1.67
2018-08-27T01:04:49.356Z,1.37
2018-08-27T01:07:16.438Z,1.60
2018-08-27T01:09:43.457Z,1.60
2018-08-27T01:12:10.491Z,2.30
2018-08-27T01:14:37.576Z,2.27
2018-08-27T01:19:45.239Z,4.80
2018-08-27T01:22:12.272Z,2.47
2018-08-27T01:24:39.295Z,1.60
2018-08-27T01:27:06.471Z,1.23
2018-08-27T01:29:33.503Z,3.30
2018-08-27T01:32:00.526Z,3.40
2018-08-27T01:34:27.604Z,1.63
2018-08-27T01:36:54.641Z,2.47
2018-08-27T01:39:21.682Z,2.90
2018-08-27T01:41:48.766Z,1.80
2018-08-27T01:44:15.816Z,1.60
2018-08-27T01:46:42.845Z,2.80
2018-08-27T01:49:09.943Z,2.57
2018-08-27T01:51:36.979Z,1.70
2018-08-27T01:54:03.990Z,2.00
2018-08-27T01:56:31.048Z,2.17
2018-08-27T01:58:58.075Z,6.80
2018-08-27T02:01:25.106Z,2.20
2018-08-27T02:03:52.185Z,2.03
2018-08-27T02:06:19.213Z,1.90
2018-08-27T02:08:46.240Z,2.10
2018-08-27T02:11:13.310Z,4.47
2018-08-27T02:13:40.342Z,2.57
2018-08-27T02:16:07.378Z,1.50
2018-08-27T02:18:34.473Z,1.57
2018-08-27T02:21:01.553Z,2.33
2018-08-27T02:23:28.535Z,2.00
2018-08-27T02:25:55.669Z,1.50
2018-08-27T02:28:22.665Z,2.20
2018-08-27T02:30:49.703Z,2.10
2018-08-27T02:33:16.781Z,2.27
2018-08-27T02:38:24.233Z,1.95
2018-08-27T02:40:51.266Z,2.33
2018-08-27T02:43:18.294Z,3.03
2018-08-27T02:45:45.366Z,1.90
2018-08-27T02:48:12.391Z,1.77
2018-08-27T02:50:39.415Z,1.80
2018-08-27T02:53:06.500Z,1.60
2018-08-27T02:55:33.548Z,2.70
2018-08-27T02:58:04.182Z,1.70
2018-08-27T03:00:31.251Z,1.67
2018-08-27T03:02:58.279Z,2.30
2018-08-27T03:05:25.294Z,1.83
2018-08-27T03:07:52.365Z,2.30
2018-08-27T03:10:19.391Z,2.90
2018-08-27T03:12:46.428Z,2.20
2018-08-27T03:15:13.509Z,3.03
2018-08-27T03:17:40.537Z,1.97
2018-08-27T03:20:07.563Z,2.10
2018-08-27T03:22:34.621Z,1.83
2018-08-27T03:25:02.790Z,2.80
2018-08-27T03:27:29.657Z,1.67
2018-08-27T03:29:56.724Z,2.70
2018-08-27T03:32:23.752Z,2.00
2018-08-27T03:34:50.778Z,1.50
2018-08-27T03:37:17.848Z,1.90
2018-08-27T03:39:44.878Z,4.00
2018-08-27T03:42:11.907Z,2.53
2018-08-27T03:44:38.981Z,3.33
2018-08-27T03:47:06.000Z,1.47
2018-08-27T03:49:33.030Z,2.27
2018-08-27T03:54:38.753Z,2.10
2018-08-27T03:57:05.833Z,2.30
2018-08-27T03:59:33.497Z,2.90
2018-08-27T04:02:00.525Z,2.20
2018-08-27T04:04:28.523Z,1.73
2018-08-27T04:06:55.547Z,2.00
2018-08-27T04:09:22.573Z,2.37
2018-08-27T04:11:49.660Z,2.37
2018-08-27T04:14:16.768Z,1.40
2018-08-27T04:16:43.792Z,1.57
2018-08-27T04:19:10.854Z,2.17
2018-08-27T04:21:37.875Z,1.90
2018-08-27T04:24:04.892Z,3.63
2018-08-27T04:26:31.990Z,1.40
2018-08-27T04:28:59.027Z,2.90
2018-08-27T04:31:26.009Z,3.00
2018-08-27T04:33:53.047Z,1.97
2018-08-27T04:36:20.042Z,1.80
2018-08-27T04:38:47.040Z,1.90
2018-08-27T04:41:14.070Z,3.83
2018-08-27T04:43:41.060Z,2.20
2018-08-27T04:46:08.061Z,2.80
2018-08-27T04:48:35.118Z,2.50
2018-08-27T04:51:02.106Z,2.27
2018-08-27T04:53:29.123Z,2.73
2018-08-27T04:55:56.153Z,3.57
2018-08-27T04:58:23.137Z,4.03
2018-08-27T05:00:50.141Z,4.43
2018-08-27T05:03:17.160Z,5.87
2018-08-27T05:05:44.164Z,5.73
2018-08-27T05:08:11.150Z,5.10
2018-08-27T05:10:38.184Z,3.20
2018-08-27T05:13:05.996Z,3.37
2018-08-27T05:15:33.830Z,8.77
2018-08-27T05:20:40.269Z,3.85
2018-08-27T05:23:07.327Z,4.10
2018-08-27T05:25:35.169Z,2.27
2018-08-27T05:28:02.252Z,4.07
2018-08-27T05:30:30.168Z,4.07
2018-08-27T05:32:57.129Z,3.60
2018-08-27T05:38:02.600Z,2.80
2018-08-27T05:40:30.905Z,4.97
2018-08-27T05:42:57.904Z,3.47
2018-08-27T05:45:25.336Z,2.73
2018-08-27T05:47:52.401Z,2.57
2018-08-27T05:50:19.354Z,4.10
2018-08-27T05:52:47.357Z,6.23
2018-08-27T05:55:14.371Z,4.50
2018-08-27T05:57:41.383Z,3.83
2018-08-27T06:00:09.287Z,3.07
2018-08-27T06:02:36.275Z,6.70
2018-08-27T06:05:03.755Z,2.87
2018-08-27T06:07:30.673Z,2.43
2018-08-27T06:09:57.679Z,2.73
2018-08-27T06:12:24.674Z,3.60
2018-08-27T06:14:51.829Z,3.30
2018-08-27T06:17:18.826Z,3.17
2018-08-27T06:19:45.833Z,2.47
2018-08-27T06:22:12.980Z,3.10
2018-08-27T06:24:40.801Z,3.03
2018-08-27T06:27:07.788Z,7.03
2018-08-27T06:29:34.830Z,4.50
2018-08-27T06:32:01.845Z,3.17
2018-08-27T06:34:28.864Z,4.40
2018-08-27T06:36:55.905Z,3.10
2018-08-27T06:39:22.931Z,3.50
2018-08-27T06:41:50.774Z,4.33
2018-08-27T06:44:17.832Z,6.63
2018-08-27T06:46:45.669Z,4.60
2018-08-27T06:49:13.651Z,4.33
2018-08-27T06:51:40.693Z,4.17
2018-08-27T06:56:46.252Z,4.45
2018-08-27T06:59:13.216Z,8.27
2018-08-27T07:01:41.161Z,5.40
2018-08-27T07:04:08.218Z,2.20
2018-08-27T07:06:35.236Z,2.50
2018-08-27T07:09:02.725Z,2.23
2018-08-27T07:11:29.681Z,2.10
2018-08-27T07:13:56.689Z,3.63
2018-08-27T07:16:23.721Z,2.07
2018-08-27T07:18:50.777Z,3.83
2018-08-27T07:21:17.782Z,2.60
2018-08-27T07:23:44.792Z,2.03
2018-08-27T07:26:11.830Z,1.83
2018-08-27T07:28:38.855Z,3.70
2018-08-27T07:31:05.861Z,3.13
2018-08-27T07:33:32.918Z,3.27
2018-08-27T07:36:00.011Z,1.73
2018-08-27T07:38:26.992Z,3.90
2018-08-27T07:40:54.148Z,3.43
2018-08-27T07:43:21.219Z,2.07
2018-08-27T07:45:48.205Z,2.37
2018-08-27T07:48:16.207Z,5.87
2018-08-27T07:50:44.937Z,2.97
2018-08-27T07:53:10.276Z,2.87
2018-08-27T07:55:37.326Z,3.70
2018-08-27T07:58:04.428Z,3.10
2018-08-27T08:00:32.404Z,1.63
2018-08-27T08:02:59.481Z,1.77
2018-08-27T08:08:05.950Z,1.67
2018-08-27T08:10:32.959Z,3.50
2018-08-27T08:12:59.986Z,2.63
2018-08-27T08:15:27.053Z,2.50
2018-08-27T08:17:54.063Z,2.30
2018-08-27T08:20:21.084Z,1.43
2018-08-27T08:22:48.121Z,1.97
2018-08-27T08:25:15.122Z,1.33
2018-08-27T08:27:43.091Z,2.13
2018-08-27T08:30:10.136Z,2.10
2018-08-27T08:32:37.157Z,2.23
2018-08-27T08:35:04.240Z,1.50
2018-08-27T08:37:31.282Z,1.77
2018-08-27T08:39:59.158Z,2.47
2018-08-27T08:42:26.101Z,5.10
2018-08-27T08:44:53.172Z,3.40
2018-08-27T08:47:20.212Z,4.20
2018-08-27T08:49:47.244Z,2.13
2018-08-27T08:52:15.180Z,3.77
2018-08-27T08:54:42.201Z,1.40
2018-08-27T08:57:09.207Z,2.70
2018-08-27T08:59:36.258Z,4.23
2018-08-27T09:02:03.308Z,1.80
2018-08-27T09:04:30.313Z,1.40
2018-08-27T09:06:57.343Z,1.97
2018-08-27T09:09:24.338Z,1.67
2018-08-27T09:11:52.181Z,3.20
2018-08-27T09:14:20.001Z,3.73
2018-08-27T09:16:47.043Z,3.47
2018-08-27T09:19:14.080Z,1.80
2018-08-27T09:24:22.530Z,2.22
2018-08-27T09:26:50.480Z,2.23
2018-08-27T09:29:17.474Z,2.87
2018-08-27T09:31:44.498Z,1.97
2018-08-27T09:34:11.543Z,2.80
2018-08-27T09:36:39.514Z,2.20
2018-08-27T09:39:06.536Z,3.67
2018-08-27T09:41:33.603Z,2.87
2018-08-27T09:44:00.599Z,4.10
2018-08-27T09:46:27.623Z,3.40
2018-08-27T09:48:54.648Z,2.00
2018-08-27T09:51:21.668Z,3.00
2018-08-27T09:53:48.709Z,1.43
2018-08-27T09:56:15.730Z,2.90
2018-08-27T09:58:42.804Z,1.47
2018-08-27T10:01:09.735Z,1.47
2018-08-27T10:03:36.827Z,3.67
2018-08-27T10:06:03.862Z,2.03
2018-08-27T10:08:31.812Z,2.13
2018-08-27T10:10:58.863Z,3.30
2018-08-27T10:13:25.861Z,2.47
2018-08-27T10:15:52.866Z,2.30
2018-08-27T10:18:19.915Z,1.50
2018-08-27T10:20:47.776Z,1.60
2018-08-27T10:23:14.774Z,2.50
2018-08-27T10:25:41.806Z,1.30
2018-08-27T10:28:08.808Z,1.13
2018-08-27T10:30:35.824Z,2.97
2018-08-27T10:33:02.883Z,2.33
2018-08-27T10:35:29.876Z,2.30
2018-08-27T10:37:56.871Z,1.63
2018-08-27T10:40:23.891Z,1.73
2018-08-27T10:45:30.222Z,1.70
2018-08-27T10:47:57.223Z,2.43
2018-08-27T10:50:25.098Z,7.33
2018-08-27T10:52:52.971Z,2.23
2018-08-27T10:55:19.969Z,2.07
2018-08-27T10:57:47.001Z,1.97
2018-08-27T11:00:15.611Z,2.13
2018-08-27T11:02:41.942Z,1.40
2018-08-27T11:05:08.955Z,2.43
2018-08-27T11:07:36.843Z,2.20
2018-08-27T11:10:03.866Z,1.30
2018-08-27T11:12:30.892Z,2.03
2018-08-27T11:14:59.036Z,2.37
2018-08-27T11:17:26.023Z,5.43
2018-08-27T11:19:54.015Z,2.10
2018-08-27T11:22:21.159Z,3.67
2018-08-27T11:24:49.068Z,2.37
2018-08-27T11:27:16.090Z,2.87
2018-08-27T11:29:43.212Z,1.40
2018-08-27T11:32:10.254Z,2.73
2018-08-27T11:34:37.249Z,1.87
2018-08-27T11:37:04.296Z,3.37
2018-08-27T11:39:31.354Z,3.03
2018-08-27T11:41:58.369Z,5.77
2018-08-27T11:44:25.401Z,4.83
2018-08-27T11:46:52.398Z,2.93
2018-08-27T11:49:19.425Z,2.30
2018-08-27T11:51:46.599Z,3.97
2018-08-27T11:54:13.716Z,3.07
2018-08-27T11:56:40.746Z,2.30
2018-08-27T11:59:07.787Z,4.87
2018-08-27T12:04:15.317Z,2.20
2018-08-27T12:06:42.311Z,3.30
2018-08-27T12:09:10.292Z,3.77
2018-08-27T12:11:37.313Z,4.37
2018-08-27T12:14:04.308Z,2.20
2018-08-27T12:16:31.317Z,3.13
2018-08-27T12:18:58.374Z,2.23
2018-08-27T12:21:25.386Z,4.53
2018-08-27T12:23:52.472Z,2.27
2018-08-27T12:26:20.388Z,2.57
2018-08-27T12:28:47.408Z,2.30
2018-08-27T12:31:14.434Z,3.37
2018-08-27T12:33:41.625Z,3.13
2018-08-27T12:36:09.335Z,2.17
2018-08-27T12:38:36.355Z,1.90
2018-08-27T12:41:03.484Z,3.00
2018-08-27T12:43:30.411Z,4.00
2018-08-27T12:45:57.429Z,5.43
2018-08-27T12:48:24.479Z,2.40
2018-08-27T12:50:51.545Z,2.77
2018-08-27T12:53:18.541Z,3.53
2018-08-27T12:55:46.424Z,2.50
2018-08-27T12:58:13.454Z,4.80
2018-08-27T13:00:41.304Z,2.27
2018-08-27T13:03:08.342Z,2.50
2018-08-27T13:05:35.466Z,2.43
2018-08-27T13:08:02.482Z,4.47
2018-08-27T13:10:29.504Z,2.47
2018-08-27T13:12:56.542Z,3.53
2018-08-27T13:15:23.497Z,3.07
2018-08-27T13:17:50.523Z,2.70
2018-08-27T13:20:17.525Z,3.27
2018-08-27T13:25:23.048Z,3.23
2018-08-27T13:27:50.055Z,3.87
2018-08-27T13:30:17.916Z,4.63
2018-08-27T13:32:44.934Z,5.87
2018-08-27T13:35:12.881Z,5.10
2018-08-27T13:37:39.886Z,4.27
2018-08-27T13:40:06.943Z,5.10
2018-08-27T13:42:34.007Z,4.33
2018-08-27T13:45:01.012Z,3.60
2018-08-27T13:47:28.880Z,3.00
2018-08-27T13:49:55.877Z,5.83
2018-08-27T13:52:22.874Z,4.87
2018-08-27T13:54:49.911Z,4.53
2018-08-27T13:57:16.917Z,2.50
2018-08-27T13:59:43.924Z,2.60
2018-08-27T14:02:11.669Z,3.80
2018-08-27T14:04:38.655Z,3.30
2018-08-27T14:07:05.656Z,5.77
2018-08-27T14:09:32.696Z,3.90
2018-08-27T14:11:59.695Z,4.47
2018-08-27T14:14:26.715Z,6.53
2018-08-27T14:16:53.767Z,2.83
2018-08-27T14:19:20.884Z,4.40
2018-08-27T14:21:47.767Z,4.53
2018-08-27T14:24:14.798Z,3.93
2018-08-27T14:26:41.795Z,3.60
2018-08-27T14:29:08.794Z,6.70
2018-08-27T14:31:35.895Z,4.03
2018-08-27T14:34:02.898Z,6.60
2018-08-27T14:36:29.838Z,4.30
2018-08-27T14:38:57.030Z,5.80
2018-08-27T14:41:23.949Z,4.87
2018-08-27T14:46:29.389Z,4.73
2018-08-27T14:48:56.398Z,3.23
2018-08-27T14:51:23.393Z,4.00
2018-08-27T14:53:50.424Z,4.23
2018-08-27T14:56:17.424Z,5.30
2018-08-27T14:58:44.418Z,3.10
2018-08-27T15:01:11.439Z,5.57
2018-08-27T15:03:38.452Z,7.33
2018-08-27T15:06:05.446Z,5.20
2018-08-27T15:08:32.490Z,4.50
2018-08-27T15:10:59.497Z,3.33
2018-08-27T15:13:26.489Z,4.60
2018-08-27T15:15:53.515Z,3.50
2018-08-27T15:18:20.515Z,4.67
2018-08-27T15:20:47.530Z,4.07
2018-08-27T15:23:14.591Z,4.23
2018-08-27T15:25:41.572Z,3.53
2018-08-27T15:28:08.567Z,7.80
2018-08-27T15:30:35.597Z,4.07
2018-08-27T15:33:02.642Z,3.07
2018-08-27T15:35:29.602Z,6.83
2018-08-27T15:37:56.644Z,7.93
2018-08-27T15:40:23.658Z,3.47
2018-08-27T15:42:51.492Z,3.97
2018-08-27T15:45:18.523Z,3.50
2018-08-27T15:47:45.530Z,4.77
2018-08-27T15:50:12.610Z,3.37
2018-08-27T15:52:39.679Z,5.43
2018-08-27T15:55:06.673Z,4.77
2018-08-27T15:57:33.680Z,4.90
2018-08-27T16:00:00.806Z,4.50
2018-08-27T16:02:28.652Z,3.63
2018-08-27T16:04:55.664Z,4.47
2018-08-27T16:10:02.138Z,6.10
2018-08-27T16:12:29.181Z,3.87
2018-08-27T16:14:56.189Z,3.57
2018-08-27T16:17:23.182Z,3.53
2018-08-27T16:19:50.231Z,4.63
2018-08-27T16:22:17.234Z,4.20
2018-08-27T16:24:44.218Z,4.23
2018-08-27T16:27:11.268Z,8.70
2018-08-27T16:29:38.281Z,5.47
2018-08-27T16:32:05.376Z,6.37
2018-08-27T16:34:33.366Z,5.10
2018-08-27T16:37:00.352Z,5.17
2018-08-27T16:39:27.474Z,5.47
2018-08-27T16:41:55.038Z,5.50
2018-08-27T16:44:21.936Z,4.10
2018-08-27T16:46:50.017Z,7.00
2018-08-27T16:49:17.072Z,4.93
2018-08-27T16:51:44.070Z,5.23
2018-08-27T16:54:11.050Z,8.97
2018-08-27T16:56:38.118Z,4.77
2018-08-27T16:59:05.131Z,7.73
2018-08-27T17:01:32.158Z,3.90
2018-08-27T17:03:59.188Z,5.07
2018-08-27T17:06:27.147Z,5.67
2018-08-27T17:08:54.160Z,5.73
2018-08-27T17:11:21.199Z,5.23
2018-08-27T17:13:48.196Z,6.07
2018-08-27T17:16:15.218Z,3.33
2018-08-27T17:18:43.153Z,4.90
2018-08-27T17:21:10.169Z,5.77
2018-08-27T17:23:37.185Z,6.63
2018-08-27T17:28:42.714Z,5.07
2018-08-27T17:31:09.752Z,3.87
2018-08-27T17:33:37.612Z,4.07
2018-08-27T17:36:04.636Z,5.10
2018-08-27T17:38:31.684Z,4.03
2018-08-27T17:40:59.436Z,5.80
2018-08-27T17:43:26.456Z,5.73
2018-08-27T17:45:53.493Z,4.07
2018-08-27T17:48:20.512Z,3.93
2018-08-27T17:50:48.333Z,4.60
2018-08-27T17:53:15.371Z,7.47
2018-08-27T17:55:42.379Z,9.03
2018-08-27T17:58:09.464Z,6.80
2018-08-27T18:00:37.379Z,3.57
2018-08-27T18:03:04.370Z,3.80
2018-08-27T18:05:32.191Z,5.83
2018-08-27T18:08:00.052Z,5.20
2018-08-27T18:10:27.052Z,6.57
2018-08-27T18:12:54.774Z,4.53
2018-08-27T18:15:21.990Z,5.03
2018-08-27T18:17:49.003Z,3.97
2018-08-27T18:20:16.009Z,5.60
2018-08-27T18:22:43.166Z,4.43
2018-08-27T18:25:10.210Z,4.73
2018-08-27T18:27:37.180Z,5.13
2018-08-27T18:32:42.698Z,4.18
2018-08-27T18:35:09.742Z,5.37
2018-08-27T18:37:36.751Z,3.90
2018-08-27T18:40:03.778Z,8.30
2018-08-27T18:42:30.847Z,5.00
2018-08-27T18:44:57.865Z,4.30
2018-08-27T18:47:24.959Z,6.80
2018-08-27T18:49:58.435Z,5.23
2018-08-27T18:52:24.138Z,7.23
2018-08-27T18:54:52.088Z,7.77
2018-08-27T18:57:19.161Z,6.10
2018-08-27T18:59:46.226Z,7.40
2018-08-27T19:02:13.184Z,6.27
2018-08-27T19:04:40.266Z,4.90
2018-08-27T19:07:07.296Z,4.53
2018-08-27T19:09:34.347Z,5.20
2018-08-27T19:12:01.410Z,6.53
2018-08-27T19:14:28.504Z,4.73
2018-08-27T19:16:55.535Z,5.00
2018-08-27T19:19:24.736Z,5.17
2018-08-27T19:21:50.707Z,4.53
2018-08-27T19:24:17.735Z,5.00
2018-08-27T19:26:44.752Z,4.73
2018-08-27T19:29:11.769Z,5.97
2018-08-27T19:31:38.866Z,6.13
2018-08-27T19:34:05.922Z,4.27
2018-08-27T19:36:33.024Z,7.03
2018-08-27T19:38:59.942Z,5.00
2018-08-27T19:41:27.044Z,4.87
2018-08-27T19:43:54.155Z,10.13
2018-08-27T19:48:59.703Z,6.18
2018-08-27T19:51:26.846Z,5.30
2018-08-27T19:53:53.853Z,5.00
2018-08-27T19:56:20.938Z,6.73
2018-08-27T19:58:47.960Z,3.87
2018-08-27T20:01:14.984Z,6.77
2018-08-27T20:03:42.071Z,4.47
2018-08-27T20:06:09.166Z,5.00
2018-08-27T20:08:36.180Z,4.97
2018-08-27T20:11:03.240Z,4.87
2018-08-27T20:13:31.186Z,4.07
2018-08-27T20:15:58.333Z,5.00
2018-08-27T20:18:25.627Z,4.10
2018-08-27T20:23:30.823Z,6.22
2018-08-27T20:25:57.877Z,6.97
2018-08-27T20:28:24.883Z,5.03
2018-08-27T20:30:51.949Z,4.40
2018-08-27T20:33:18.990Z,4.70
2018-08-27T20:35:46.220Z,7.93
2018-08-27T20:38:13.261Z,5.97
2018-08-27T20:40:40.297Z,4.70
2018-08-27T20:43:08.820Z,4.57
2018-08-27T20:45:35.904Z,4.23
2018-08-27T20:48:02.982Z,4.67
2018-08-27T20:50:30.065Z,5.40
2018-08-27T20:52:57.234Z,4.97
2018-08-27T20:55:24.349Z,7.43
2018-08-27T20:57:51.472Z,4.63
2018-08-27T21:00:18.596Z,8.03
2018-08-27T21:02:45.649Z,6.13
2018-08-27T21:05:12.712Z,6.27
2018-08-27T21:07:39.813Z,4.67
2018-08-27T21:10:07.007Z,4.80
2018-08-27T21:12:34.067Z,5.27
2018-08-27T21:15:01.146Z,4.73
2018-08-27T21:17:28.179Z,5.57
2018-08-27T21:19:55.223Z,5.57
2018-08-27T21:22:22.282Z,5.17
2018-08-27T21:24:49.289Z,7.43
2018-08-27T21:27:16.300Z,5.63
2018-08-27T21:29:43.348Z,5.20
2018-08-27T21:32:10.362Z,6.10
2018-08-27T21:34:37.487Z,5.40
2018-08-27T21:37:04.585Z,7.40
2018-08-27T21:39:33.555Z,6.10
2018-08-27T21:44:43.676Z,4.35
2018-08-27T21:47:12.440Z,4.53
2018-08-27T21:49:39.527Z,7.27
2018-08-27T21:52:06.618Z,5.20
2018-08-27T21:54:33.767Z,5.97
2018-08-27T21:57:01.000Z,6.90
2018-08-27T21:59:28.052Z,3.87
2018-08-27T22:01:55.155Z,4.93
2018-08-27T22:04:22.773Z,4.97
2018-08-27T22:06:49.834Z,5.13
2018-08-27T22:09:16.886Z,6.17
2018-08-27T22:11:43.912Z,5.20
2018-08-27T22:14:11.047Z,4.97
2018-08-27T22:16:38.207Z,5.47
2018-08-27T22:19:05.219Z,9.33
2018-08-27T22:21:32.274Z,6.53
2018-08-27T22:23:59.274Z,7.40
2018-08-27T22:26:26.294Z,7.37
2018-08-27T22:28:54.175Z,5.27
2018-08-27T22:31:22.128Z,9.20
2018-08-27T22:33:50.985Z,7.77
2018-08-27T22:36:16.554Z,5.80
2018-08-27T22:38:43.650Z,5.63
2018-08-27T22:41:10.568Z,5.50
2018-08-27T22:43:37.615Z,6.10
2018-08-27T22:46:04.618Z,4.57
2018-08-27T22:48:31.632Z,4.73
2018-08-27T22:50:58.756Z,6.30
2018-08-27T22:53:25.758Z,6.77
2018-08-27T22:55:52.765Z,5.30
2018-08-27T22:58:19.797Z,5.03
2018-08-27T23:03:25.323Z,4.90
2018-08-27T23:05:53.217Z,4.77
2018-08-27T23:08:20.234Z,5.27
2018-08-27T23:10:47.277Z,3.80
2018-08-27T23:13:14.282Z,5.03
2018-08-27T23:15:41.291Z,5.43
2018-08-27T23:18:08.328Z,4.57
2018-08-27T23:20:35.340Z,5.47
2018-08-27T23:23:02.362Z,6.10
2018-08-27T23:25:29.415Z,5.17
2018-08-27T23:27:56.427Z,5.47
2018-08-27T23:30:23.436Z,5.40
2018-08-27T23:32:50.482Z,5.90
2018-08-27T23:35:17.488Z,7.00
2018-08-27T23:37:44.504Z,7.60
2018-08-27T23:40:11.581Z,4.30
2018-08-27T23:42:38.694Z,4.87
2018-08-27T23:45:05.706Z,5.10
2018-08-27T23:47:32.766Z,4.90
2018-08-27T23:49:59.780Z,6.60
2018-08-27T23:52:26.946Z,4.17
2018-08-27T23:54:53.933Z,4.63
2018-08-27T23:57:20.961Z,5.27
2018-08-27T23:59:48.359Z,5.70
